createdAt,value
2022-12-26T00:29:37.651Z,0
2022-12-26T00:30:18.092Z,0
2022-12-26T00:30:58.538Z,0
2022-12-26T00:31:39.125Z,0
2022-12-26T00:32:19.620Z,0
2022-12-26T00:33:00.019Z,0
2022-12-26T00:33:40.537Z,0
2022-12-26T00:34:20.999Z,0
2022-12-26T00:35:01.455Z,0
2022-12-26T00:35:41.963Z,0
2022-12-26T00:36:22.473Z,0
2022-12-26T00:43:07.469Z,0
2022-12-26T00:43:47.967Z,0
2022-12-26T00:44:28.461Z,0
2022-12-26T00:45:08.987Z,0
2022-12-26T00:45:49.566Z,0
2022-12-26T00:46:30.014Z,0
2022-12-26T00:47:10.551Z,0
2022-12-26T00:47:51.000Z,0
2022-12-26T00:48:31.536Z,0
2022-12-26T00:49:12.000Z,0
2022-12-26T00:50:11.971Z,0
2022-12-26T00:56:37.714Z,0
2022-12-26T00:57:18.187Z,0
2022-12-26T00:57:58.688Z,0
2022-12-26T00:58:39.171Z,0
2022-12-26T00:59:19.721Z,0
2022-12-26T01:00:00.280Z,0
2022-12-26T01:00:40.849Z,0
2022-12-26T01:01:21.430Z,0
2022-12-26T01:02:01.883Z,0
2022-12-26T01:02:42.347Z,0
2022-12-26T01:03:22.755Z,0
2022-12-26T01:10:07.735Z,0
2022-12-26T01:10:48.275Z,0
2022-12-26T01:11:28.713Z,0
2022-12-26T01:12:09.263Z,0
2022-12-26T01:12:49.707Z,0
2022-12-26T01:13:30.248Z,0
2022-12-26T01:14:51.162Z,0
2022-12-26T01:15:31.688Z,0
2022-12-26T01:16:12.238Z,0
2022-12-26T01:23:14.429Z,0
2022-12-26T01:23:55.050Z,0
2022-12-26T01:24:35.560Z,0
2022-12-26T01:25:16.045Z,0
2022-12-26T01:26:16.169Z,0
2022-12-26T01:26:37.022Z,0
2022-12-26T01:27:17.502Z,0
2022-12-26T01:27:57.996Z,0
2022-12-26T01:28:38.501Z,0
2022-12-26T01:35:23.541Z,0
2022-12-26T01:36:04.039Z,0
2022-12-26T01:36:44.596Z,0
2022-12-26T01:37:25.061Z,0
2022-12-26T01:38:05.542Z,0
2022-12-26T01:38:46.039Z,0
2022-12-26T01:39:26.545Z,0
2022-12-26T01:40:07.054Z,0
2022-12-26T01:40:47.550Z,0
2022-12-26T01:41:28.116Z,0
2022-12-26T01:42:08.515Z,0
2022-12-26T01:48:53.527Z,0
2022-12-26T01:49:33.994Z,0
2022-12-26T01:50:14.492Z,0
2022-12-26T01:50:54.975Z,0
2022-12-26T01:51:35.540Z,0
2022-12-26T01:52:56.554Z,0
2022-12-26T01:53:37.001Z,0
2022-12-26T01:54:38.707Z,0
2022-12-26T01:54:57.974Z,0
2022-12-26T01:58:11.665Z,0
2022-12-26T01:58:52.190Z,0
2022-12-26T01:59:32.766Z,0
2022-12-26T02:00:13.227Z,0
2022-12-26T02:00:53.807Z,0
2022-12-26T02:01:34.337Z,0
2022-12-26T02:02:55.242Z,0
2022-12-26T02:03:35.741Z,0
2022-12-26T02:04:16.165Z,0
2022-12-26T02:04:56.664Z,0
2022-12-26T02:11:41.609Z,0
2022-12-26T02:12:33.570Z,0
2022-12-26T02:13:02.586Z,0
2022-12-26T02:13:43.078Z,0
2022-12-26T02:14:23.625Z,0
2022-12-26T02:15:04.098Z,0
2022-12-26T02:15:44.635Z,0
2022-12-26T02:16:25.129Z,0
2022-12-26T02:17:05.657Z,0
2022-12-26T02:23:51.484Z,0
2022-12-26T02:24:32.015Z,0
2022-12-26T02:25:12.515Z,0
2022-12-26T02:25:52.989Z,0
2022-12-26T02:26:33.519Z,0
2022-12-26T02:27:14.019Z,0
2022-12-26T02:27:54.503Z,0
2022-12-26T02:28:35.088Z,0
2022-12-26T02:29:15.551Z,0
2022-12-26T02:29:56.061Z,0
2022-12-26T02:30:36.529Z,0
2022-12-26T02:37:21.450Z,0
2022-12-26T02:38:01.945Z,0
2022-12-26T02:38:42.471Z,0
2022-12-26T02:39:42.296Z,0
2022-12-26T02:40:03.510Z,0
2022-12-26T02:40:43.969Z,0
2022-12-26T02:41:24.465Z,0
2022-12-26T02:42:05.012Z,0
2022-12-26T02:42:45.474Z,0
2022-12-26T02:43:25.980Z,0
2022-12-26T02:44:06.494Z,0
2022-12-26T02:50:51.472Z,0
2022-12-26T02:51:31.991Z,0
2022-12-26T02:52:12.527Z,0
2022-12-26T02:52:53.057Z,0
2022-12-26T02:53:33.575Z,0
2022-12-26T02:54:14.062Z,0
2022-12-26T02:54:54.561Z,0
2022-12-26T02:55:35.068Z,0
2022-12-26T02:56:15.563Z,0
2022-12-26T02:58:43.756Z,0
2022-12-26T02:59:54.764Z,0
2022-12-26T03:00:04.599Z,0
2022-12-26T03:00:45.127Z,0
2022-12-26T03:01:25.635Z,0
2022-12-26T03:02:06.247Z,0
2022-12-26T03:02:46.719Z,0
2022-12-26T03:03:27.108Z,0
2022-12-26T03:04:07.552Z,0
2022-12-26T03:04:48.004Z,0
2022-12-26T03:05:28.497Z,0
2022-12-26T03:12:13.366Z,0
2022-12-26T03:12:53.851Z,0
2022-12-26T03:13:34.348Z,0
2022-12-26T03:14:14.827Z,0
2022-12-26T03:14:55.291Z,0
2022-12-26T03:15:35.773Z,0
2022-12-26T03:16:16.279Z,0
2022-12-26T03:16:56.796Z,0
2022-12-26T03:17:37.220Z,0
2022-12-26T03:18:17.711Z,0
2022-12-26T03:19:00.525Z,0
2022-12-26T03:26:23.579Z,0
2022-12-26T03:27:04.077Z,0
2022-12-26T03:27:44.532Z,0
2022-12-26T03:28:25.037Z,0
2022-12-26T03:29:05.505Z,0
2022-12-26T03:29:45.990Z,0
2022-12-26T03:30:26.543Z,0
2022-12-26T03:31:07.047Z,0
2022-12-26T03:31:47.461Z,0
2022-12-26T03:32:27.956Z,0
2022-12-26T03:33:08.441Z,0
2022-12-26T03:39:53.359Z,0
2022-12-26T03:40:33.844Z,0
2022-12-26T03:41:14.362Z,0
2022-12-26T03:41:54.882Z,0
2022-12-26T03:42:35.347Z,0
2022-12-26T03:43:15.839Z,0
2022-12-26T03:43:56.354Z,0
2022-12-26T03:44:36.870Z,0
2022-12-26T03:45:17.376Z,0
2022-12-26T03:45:57.879Z,0
2022-12-26T03:46:38.382Z,0
2022-12-26T03:54:03.659Z,0
2022-12-26T03:54:44.152Z,0
2022-12-26T03:55:24.622Z,0
2022-12-26T03:56:05.141Z,0
2022-12-26T03:56:45.632Z,0
2022-12-26T03:57:26.158Z,0
2022-12-26T03:58:06.610Z,0
2022-12-26T03:58:47.076Z,0
2022-12-26T03:59:27.638Z,0
2022-12-26T04:00:48.561Z,0
2022-12-26T04:07:33.439Z,0
2022-12-26T04:08:18.391Z,0
2022-12-26T04:08:54.380Z,0
2022-12-26T04:09:34.917Z,0
2022-12-26T04:10:15.383Z,0
2022-12-26T04:10:55.885Z,0
2022-12-26T04:11:36.366Z,0
2022-12-26T04:12:16.811Z,0
2022-12-26T04:12:57.340Z,0
2022-12-26T04:13:37.801Z,0
2022-12-26T04:22:00.648Z,0
2022-12-26T04:22:41.137Z,0
2022-12-26T04:23:21.642Z,0
2022-12-26T04:24:02.120Z,0
2022-12-26T04:24:42.578Z,0
2022-12-26T04:25:49.318Z,0
2022-12-26T04:26:03.551Z,0
2022-12-26T04:26:44.011Z,0
2022-12-26T04:27:24.509Z,0
2022-12-26T04:28:04.982Z,0
2022-12-26T04:35:30.303Z,0
2022-12-26T04:36:10.753Z,0
2022-12-26T04:37:31.736Z,0
2022-12-26T04:38:12.187Z,0
2022-12-26T04:38:52.684Z,0
2022-12-26T04:39:33.150Z,0
2022-12-26T04:41:46.026Z,0
2022-12-26T04:42:26.393Z,0
2022-12-26T04:43:46.451Z,0
2022-12-26T04:43:51.253Z,0
2022-12-26T04:44:27.883Z,0
2022-12-26T04:45:08.439Z,0
2022-12-26T04:45:48.907Z,0
2022-12-26T04:46:29.436Z,0
2022-12-26T04:48:42.420Z,0
2022-12-26T04:49:22.746Z,0
2022-12-26T04:50:03.218Z,0
2022-12-26T04:50:43.729Z,0
2022-12-26T04:51:24.235Z,0
2022-12-26T04:52:04.710Z,0
2022-12-26T04:52:45.214Z,0
2022-12-26T04:53:25.688Z,0
2022-12-26T04:54:06.196Z,0
2022-12-26T04:54:46.688Z,0
2022-12-26T04:55:27.194Z,0
2022-12-26T05:02:12.161Z,0
2022-12-26T05:02:52.762Z,0
2022-12-26T05:03:33.109Z,0
2022-12-26T05:04:13.521Z,0
2022-12-26T05:04:54.032Z,0
2022-12-26T05:05:34.548Z,0
2022-12-26T05:06:15.015Z,0
2022-12-26T05:06:55.480Z,0
2022-12-26T05:07:36.009Z,0
2022-12-26T05:08:16.491Z,0
2022-12-26T05:16:22.423Z,0
2022-12-26T05:17:02.828Z,0
2022-12-26T05:17:43.358Z,0
2022-12-26T05:18:23.784Z,0
2022-12-26T05:19:04.329Z,0
2022-12-26T05:19:44.816Z,0
2022-12-26T05:20:25.255Z,0
2022-12-26T05:21:05.754Z,0
2022-12-26T05:21:46.231Z,0
2022-12-26T05:23:07.185Z,0
2022-12-26T05:29:52.022Z,0
2022-12-26T05:30:32.497Z,0
2022-12-26T05:31:13.058Z,0
2022-12-26T05:31:53.487Z,0
2022-12-26T05:32:33.935Z,0
2022-12-26T05:33:14.487Z,0
2022-12-26T05:33:55.521Z,0
2022-12-26T05:34:35.478Z,0
2022-12-26T05:35:15.911Z,0
2022-12-26T05:42:42.104Z,0
2022-12-26T05:43:22.569Z,0
2022-12-26T05:44:03.051Z,0
2022-12-26T05:44:43.561Z,0
2022-12-26T05:45:24.062Z,0
2022-12-26T05:46:04.603Z,0
2022-12-26T05:46:45.071Z,0
2022-12-26T05:47:25.529Z,0
2022-12-26T05:48:05.991Z,0
2022-12-26T05:48:46.493Z,0
2022-12-26T05:49:26.977Z,0
2022-12-26T06:32:06.949Z,0
2022-12-26T06:32:47.412Z,0
2022-12-26T06:33:27.928Z,0
2022-12-26T06:34:08.478Z,0
2022-12-26T06:34:48.949Z,0
2022-12-26T06:35:29.459Z,0
2022-12-26T06:36:09.911Z,0
2022-12-26T06:36:50.445Z,0
2022-12-26T06:37:30.916Z,0
2022-12-26T06:38:11.412Z,0
2022-12-26T06:38:51.917Z,0
2022-12-26T06:45:36.876Z,0
2022-12-26T06:46:17.436Z,0
2022-12-26T06:46:57.899Z,0
2022-12-26T06:47:38.379Z,0
2022-12-26T06:48:59.379Z,0
2022-12-26T06:49:39.872Z,0
2022-12-26T06:50:20.355Z,0
2022-12-26T06:51:00.854Z,0
2022-12-26T06:51:41.342Z,0
2022-12-26T06:52:21.836Z,0
2022-12-26T06:59:06.806Z,0
2022-12-26T06:59:47.345Z,0
2022-12-26T07:00:27.845Z,0
2022-12-26T07:01:08.428Z,0
2022-12-26T07:01:49.031Z,0
2022-12-26T07:02:29.483Z,0
2022-12-26T07:03:09.922Z,0
2022-12-26T07:03:51.810Z,0
2022-12-26T07:04:30.841Z,0
2022-12-26T07:05:11.336Z,0
2022-12-26T07:12:36.923Z,0
2022-12-26T07:13:17.430Z,0
2022-12-26T07:13:57.938Z,0
2022-12-26T07:14:38.466Z,0
2022-12-26T07:15:18.934Z,0
2022-12-26T07:15:59.465Z,0
2022-12-26T07:16:40.040Z,0
2022-12-26T07:17:20.455Z,4
2022-12-26T07:18:00.947Z,4
2022-12-26T07:18:41.480Z,4
2022-12-26T07:19:21.947Z,0
2022-12-26T07:26:06.951Z,4
2022-12-26T07:26:47.475Z,4
2022-12-26T07:27:27.952Z,4
2022-12-26T07:28:08.473Z,4
2022-12-26T07:28:48.907Z,4
2022-12-26T07:29:29.368Z,8
2022-12-26T07:30:09.871Z,8
2022-12-26T07:30:50.469Z,8
2022-12-26T07:31:30.890Z,8
2022-12-26T07:32:11.373Z,4
2022-12-26T07:32:51.821Z,8
2022-12-26T07:39:36.819Z,12
2022-12-26T07:40:17.329Z,12
2022-12-26T07:40:57.821Z,16
2022-12-26T07:41:38.300Z,16
2022-12-26T07:42:18.814Z,16
2022-12-26T07:42:59.331Z,16
2022-12-26T07:43:39.891Z,20
2022-12-26T07:44:20.406Z,20
2022-12-26T07:45:00.875Z,20
2022-12-26T07:45:45.474Z,20
2022-12-26T07:50:21.009Z,28
2022-12-26T07:51:01.505Z,32
2022-12-26T07:51:42.015Z,32
2022-12-26T07:52:22.548Z,36
2022-12-26T07:53:03.055Z,40
2022-12-26T07:53:43.530Z,40
2022-12-26T07:54:24.014Z,40
2022-12-26T07:55:04.534Z,40
2022-12-26T07:55:45.003Z,44
2022-12-26T07:56:25.514Z,44
2022-12-26T08:03:50.853Z,52
2022-12-26T08:04:31.267Z,52
2022-12-26T08:05:11.754Z,56
2022-12-26T08:05:52.257Z,56
2022-12-26T08:06:32.726Z,60
2022-12-26T08:07:13.208Z,60
2022-12-26T08:07:53.704Z,64
2022-12-26T08:08:34.232Z,68
2022-12-26T08:09:14.721Z,72
2022-12-26T08:09:55.210Z,76
2022-12-26T08:10:35.688Z,80
2022-12-26T08:18:01.031Z,92
2022-12-26T08:18:41.572Z,92
2022-12-26T08:19:22.071Z,92
2022-12-26T08:20:02.549Z,96
2022-12-26T08:20:43.080Z,96
2022-12-26T08:21:23.587Z,100
2022-12-26T08:22:04.052Z,96
2022-12-26T08:22:44.501Z,88
2022-12-26T08:23:25.013Z,88
2022-12-26T08:24:46.080Z,88
2022-12-26T08:31:30.981Z,176
2022-12-26T08:32:11.430Z,180
2022-12-26T08:32:51.984Z,180
2022-12-26T08:33:32.419Z,180
2022-12-26T08:34:12.904Z,176
2022-12-26T08:34:53.460Z,184
2022-12-26T08:35:33.918Z,192
2022-12-26T08:36:14.395Z,204
2022-12-26T08:36:54.902Z,212
2022-12-26T08:37:35.397Z,224
2022-12-26T08:38:15.881Z,236
2022-12-26T08:45:00.791Z,364
2022-12-26T08:45:41.312Z,408
2022-12-26T08:46:21.767Z,448
2022-12-26T08:48:50.544Z,540
2022-12-26T08:49:30.172Z,576
2022-12-26T08:50:10.652Z,564
2022-12-26T08:50:51.152Z,548
2022-12-26T08:51:31.685Z,548
2022-12-26T08:52:12.214Z,560
2022-12-26T08:52:52.735Z,564
2022-12-26T08:53:36.056Z,568
2022-12-26T08:57:39.564Z,596
2022-12-26T08:58:19.574Z,596
2022-12-26T08:59:00.094Z,600
2022-12-26T08:59:40.517Z,600
2022-12-26T09:00:21.063Z,600
2022-12-26T09:01:01.628Z,596
2022-12-26T09:01:42.296Z,576
2022-12-26T09:02:22.955Z,548
2022-12-26T09:03:03.797Z,524
2022-12-26T09:03:44.404Z,508
2022-12-26T09:10:30.103Z,548
2022-12-26T09:11:10.854Z,560
2022-12-26T09:11:51.272Z,564
2022-12-26T09:12:31.835Z,576
2022-12-26T09:13:12.313Z,592
2022-12-26T09:13:52.891Z,596
2022-12-26T09:14:33.331Z,604
2022-12-26T09:15:13.803Z,612
2022-12-26T09:15:54.324Z,632
2022-12-26T09:23:16.127Z,708
2022-12-26T09:23:56.796Z,708
2022-12-26T09:24:37.798Z,700
2022-12-26T09:25:17.803Z,680
2022-12-26T09:25:58.253Z,640
2022-12-26T09:26:38.889Z,636
2022-12-26T09:27:19.416Z,616
2022-12-26T09:27:59.963Z,604
2022-12-26T09:28:40.492Z,596
2022-12-26T09:29:21.032Z,596
2022-12-26T09:31:29.905Z,608
2022-12-26T09:32:08.680Z,616
2022-12-26T09:32:49.333Z,616
2022-12-26T09:33:30.545Z,624
2022-12-26T09:34:11.018Z,636
2022-12-26T09:38:56.187Z,604
2022-12-26T09:39:36.643Z,588
2022-12-26T09:42:04.851Z,596
2022-12-26T09:42:45.421Z,608
2022-12-26T09:43:25.950Z,608
2022-12-26T09:44:06.485Z,604
2022-12-26T09:44:47.281Z,592
2022-12-26T09:45:27.762Z,592
2022-12-26T09:46:08.269Z,604
2022-12-26T09:46:48.859Z,584
2022-12-26T09:47:29.280Z,552
2022-12-26T09:54:14.489Z,484
2022-12-26T09:54:55.000Z,520
2022-12-26T09:55:35.429Z,548
2022-12-26T09:56:36.840Z,580
2022-12-26T09:57:05.447Z,604
2022-12-26T09:57:36.953Z,616
2022-12-26T09:58:17.428Z,632
2022-12-26T09:58:57.901Z,648
2022-12-26T09:59:38.442Z,660
2022-12-26T10:00:18.927Z,664
2022-12-26T10:00:59.415Z,672
2022-12-26T10:07:44.573Z,600
2022-12-26T10:08:25.097Z,604
2022-12-26T10:09:05.608Z,600
2022-12-26T10:09:46.176Z,616
2022-12-26T10:10:26.634Z,620
2022-12-26T10:11:07.169Z,636
2022-12-26T10:11:47.656Z,632
2022-12-26T10:15:01.297Z,648
2022-12-26T10:15:42.002Z,660
2022-12-26T10:16:22.476Z,668
2022-12-26T10:17:02.999Z,668
2022-12-26T10:17:43.418Z,660
2022-12-26T10:18:23.906Z,664
2022-12-26T10:19:04.460Z,676
2022-12-26T10:19:44.909Z,672
2022-12-26T10:20:25.419Z,632
2022-12-26T10:27:51.042Z,380
2022-12-26T10:28:31.516Z,388
2022-12-26T10:29:12.013Z,428
2022-12-26T10:29:52.600Z,412
2022-12-26T10:30:33.159Z,416
2022-12-26T10:31:13.704Z,408
2022-12-26T10:31:54.167Z,380
2022-12-26T10:32:34.647Z,336
2022-12-26T10:33:15.236Z,308
2022-12-26T10:34:36.191Z,364
2022-12-26T10:41:21.349Z,524
2022-12-26T10:42:01.804Z,528
2022-12-26T10:42:42.346Z,520
2022-12-26T10:43:23.077Z,492
2022-12-26T10:44:44.040Z,448
2022-12-26T10:45:24.575Z,420
2022-12-26T10:46:05.144Z,468
2022-12-26T10:47:26.125Z,608
2022-12-26T10:53:31.477Z,796
2022-12-26T10:54:12.035Z,800
2022-12-26T10:54:52.561Z,792
2022-12-26T10:55:34.430Z,772
2022-12-26T10:56:16.584Z,736
2022-12-26T10:57:35.575Z,788
2022-12-26T10:58:16.134Z,800
2022-12-26T11:05:33.112Z,780
2022-12-26T11:07:13.952Z,724
2022-12-26T11:07:54.430Z,716
2022-12-26T11:08:39.175Z,716
2022-12-26T11:09:15.436Z,728
2022-12-26T11:10:36.447Z,776
2022-12-26T11:11:16.956Z,772
2022-12-26T11:11:57.417Z,776
2022-12-26T11:12:38.002Z,768
2022-12-26T11:13:18.484Z,768
2022-12-26T11:14:03.181Z,776
2022-12-26T11:20:03.883Z,788
2022-12-26T11:20:44.338Z,780
2022-12-26T11:21:24.888Z,776
2022-12-26T11:22:05.332Z,780
2022-12-26T11:22:45.818Z,768
2022-12-26T11:23:26.761Z,788
2022-12-26T11:24:07.237Z,800
2022-12-26T11:24:47.989Z,816
2022-12-26T11:25:28.292Z,828
2022-12-26T11:26:08.768Z,820
2022-12-26T11:32:53.884Z,800
2022-12-26T11:33:34.376Z,764
2022-12-26T11:34:15.650Z,768
2022-12-26T11:34:56.202Z,760
2022-12-26T11:35:36.646Z,760
2022-12-26T11:36:17.153Z,752
2022-12-26T11:36:57.660Z,744
2022-12-26T11:37:38.203Z,776
2022-12-26T11:38:18.671Z,816
2022-12-26T11:44:24.022Z,516
2022-12-26T11:45:05.029Z,552
2022-12-26T11:45:45.602Z,584
2022-12-26T11:46:26.104Z,616
2022-12-26T11:47:06.579Z,564
2022-12-26T11:47:47.083Z,556
2022-12-26T11:48:27.618Z,592
2022-12-26T11:49:08.177Z,608
2022-12-26T11:49:48.640Z,608
2022-12-26T12:32:12.663Z,320
2022-12-26T12:32:56.975Z,332
2022-12-26T12:33:33.728Z,316
2022-12-26T12:34:14.179Z,300
2022-12-26T12:34:54.651Z,272
2022-12-26T12:35:35.205Z,260
2022-12-26T12:36:15.694Z,256
2022-12-26T12:36:56.113Z,256
2022-12-26T12:37:36.595Z,252
2022-12-26T12:38:17.070Z,240
2022-12-26T12:44:22.351Z,380
2022-12-26T12:45:02.836Z,440
2022-12-26T12:45:43.866Z,384
2022-12-26T12:46:24.130Z,408
2022-12-26T12:47:04.654Z,432
2022-12-26T12:47:45.204Z,456
2022-12-26T12:48:25.631Z,440
2022-12-26T12:49:06.143Z,420
2022-12-26T12:49:46.599Z,484
2022-12-26T12:50:27.103Z,528
2022-12-26T12:57:12.002Z,508
2022-12-26T12:57:52.507Z,508
2022-12-26T12:58:33.086Z,516
2022-12-26T12:59:13.686Z,520
2022-12-26T12:59:54.137Z,508
2022-12-26T13:00:34.659Z,484
2022-12-26T13:01:15.215Z,488
2022-12-26T13:01:55.771Z,588
2022-12-26T13:02:36.232Z,608
2022-12-26T13:03:16.757Z,592
2022-12-26T13:03:57.151Z,524
2022-12-26T13:10:42.163Z,384
2022-12-26T13:11:22.645Z,348
2022-12-26T13:12:03.136Z,348
2022-12-26T13:12:43.678Z,316
2022-12-26T13:13:24.139Z,288
2022-12-26T13:14:04.631Z,292
2022-12-26T13:14:45.190Z,284
2022-12-26T13:16:06.299Z,208
2022-12-26T13:16:46.775Z,168
2022-12-26T13:17:27.219Z,160
2022-12-26T13:24:12.275Z,72
2022-12-26T13:24:52.766Z,52
2022-12-26T13:25:33.274Z,40
2022-12-26T13:26:13.803Z,32
2022-12-26T13:26:54.319Z,32
2022-12-26T13:27:34.847Z,32
2022-12-26T13:28:15.317Z,32
2022-12-26T13:28:55.809Z,28
2022-12-26T13:29:36.315Z,24
2022-12-26T13:30:16.826Z,28
2022-12-26T13:30:57.341Z,24
2022-12-26T13:37:02.096Z,92
2022-12-26T13:37:42.585Z,100
2022-12-26T13:38:23.105Z,116
2022-12-26T13:39:04.562Z,116
2022-12-26T13:39:45.061Z,116
2022-12-26T13:40:25.557Z,120
2022-12-26T13:41:06.029Z,116
2022-12-26T13:41:46.554Z,116
2022-12-26T13:42:27.075Z,112
2022-12-26T13:49:12.036Z,176
2022-12-26T13:49:52.527Z,156
2022-12-26T13:50:32.982Z,148
2022-12-26T13:51:13.438Z,144
2022-12-26T13:51:53.962Z,148
2022-12-26T13:52:34.491Z,144
2022-12-26T13:53:14.991Z,140
2022-12-26T13:53:55.486Z,140
2022-12-26T13:54:36.033Z,148
2022-12-26T13:55:16.552Z,164
2022-12-26T13:55:57.000Z,144
2022-12-26T14:03:07.575Z,48
2022-12-26T14:03:22.645Z,52
2022-12-26T14:04:03.120Z,56
2022-12-26T14:04:43.504Z,64
2022-12-26T14:05:23.955Z,80
2022-12-26T14:06:04.435Z,88
2022-12-26T14:06:44.917Z,112
2022-12-26T14:07:25.401Z,128
2022-12-26T14:08:05.877Z,140
2022-12-26T14:08:51.429Z,116
2022-12-26T14:09:26.906Z,88
2022-12-26T14:17:32.797Z,20
2022-12-26T14:18:13.303Z,16
2022-12-26T14:18:53.865Z,20
2022-12-26T14:22:27.925Z,32
2022-12-26T14:23:08.272Z,32
2022-12-26T14:23:48.755Z,28
2022-12-26T14:24:29.248Z,24
2022-12-26T14:31:14.329Z,40
2022-12-26T14:31:54.823Z,40
2022-12-26T14:32:35.313Z,44
2022-12-26T14:33:15.796Z,48
2022-12-26T14:33:56.284Z,52
2022-12-26T14:34:36.787Z,64
2022-12-26T14:35:17.262Z,64
2022-12-26T14:35:57.737Z,64
2022-12-26T14:36:38.233Z,56
2022-12-26T14:37:18.715Z,56
2022-12-26T14:45:24.620Z,68
2022-12-26T14:46:05.169Z,76
2022-12-26T14:46:45.581Z,88
2022-12-26T14:47:26.094Z,100
2022-12-26T14:48:06.606Z,100
2022-12-26T14:49:31.884Z,84
2022-12-26T14:50:08.108Z,72
2022-12-26T14:50:48.574Z,64
2022-12-26T14:51:29.062Z,56
2022-12-26T14:52:09.597Z,56
2022-12-26T14:59:21.250Z,56
2022-12-26T15:00:03.558Z,52
2022-12-26T15:00:42.139Z,56
2022-12-26T15:01:22.719Z,52
2022-12-26T15:02:03.228Z,52
2022-12-26T15:02:43.679Z,44
2022-12-26T15:03:24.088Z,40
2022-12-26T15:04:04.508Z,40
2022-12-26T15:04:44.994Z,40
2022-12-26T15:05:25.501Z,44
2022-12-26T15:06:06.012Z,48
2022-12-26T15:11:31.098Z,40
2022-12-26T15:12:12.243Z,36
2022-12-26T15:12:58.699Z,36
2022-12-26T15:13:33.101Z,32
2022-12-26T15:14:13.612Z,28
2022-12-26T15:14:54.163Z,20
2022-12-26T15:15:34.730Z,16
2022-12-26T15:16:15.285Z,16
2022-12-26T15:16:55.733Z,16
2022-12-26T15:17:36.202Z,20
2022-12-26T15:24:21.221Z,16
2022-12-26T15:25:18.468Z,16
2022-12-26T15:25:42.176Z,12
2022-12-26T15:26:22.655Z,12
2022-12-26T15:27:03.176Z,12
2022-12-26T15:27:43.680Z,12
2022-12-26T15:28:24.144Z,8
2022-12-26T15:29:04.655Z,8
2022-12-26T15:29:45.137Z,8
2022-12-26T15:30:25.643Z,8
2022-12-26T15:31:06.223Z,8
2022-12-26T15:37:10.988Z,4
2022-12-26T15:37:51.507Z,4
2022-12-26T15:38:32.729Z,4
2022-12-26T15:39:13.050Z,4
2022-12-26T15:39:53.726Z,4
2022-12-26T15:40:34.045Z,4
2022-12-26T15:41:14.547Z,4
2022-12-26T15:41:55.079Z,0
2022-12-26T15:42:35.565Z,4
2022-12-26T15:43:16.061Z,0
2022-12-26T15:49:20.924Z,0
2022-12-26T15:50:01.573Z,0
2022-12-26T15:50:42.041Z,4
2022-12-26T15:51:22.605Z,4
2022-12-26T15:54:52.976Z,0
2022-12-26T15:55:33.424Z,0
2022-12-26T15:56:13.954Z,0
2022-12-26T15:56:54.493Z,0
2022-12-26T15:57:34.951Z,0
2022-12-26T15:58:15.473Z,0
2022-12-26T15:58:55.952Z,0
2022-12-26T15:59:36.460Z,0
2022-12-26T16:00:16.942Z,0
2022-12-26T16:00:57.410Z,0
2022-12-26T16:01:38.053Z,0
2022-12-26T16:08:22.923Z,0
2022-12-26T16:09:03.410Z,0
2022-12-26T16:09:43.927Z,0
2022-12-26T16:10:24.430Z,0
2022-12-26T16:11:04.954Z,0
2022-12-26T16:11:45.381Z,0
2022-12-26T16:12:25.979Z,0
2022-12-26T16:13:06.387Z,0
2022-12-26T16:13:46.949Z,0
2022-12-26T16:14:27.390Z,0
2022-12-26T16:15:07.865Z,0
2022-12-26T16:21:52.912Z,0
2022-12-26T16:22:33.416Z,0
2022-12-26T16:23:13.903Z,0
2022-12-26T16:23:54.456Z,0
2022-12-26T16:24:34.981Z,0
2022-12-26T16:25:15.434Z,0
2022-12-26T16:25:55.961Z,0
2022-12-26T16:26:36.477Z,0
2022-12-26T16:27:16.998Z,0
2022-12-26T16:27:57.519Z,0
2022-12-26T16:35:23.071Z,0
2022-12-26T16:36:03.600Z,0
2022-12-26T16:36:44.090Z,0
2022-12-26T16:37:24.604Z,0
2022-12-26T16:38:05.094Z,0
2022-12-26T16:38:45.607Z,0
2022-12-26T16:39:26.118Z,0
2022-12-26T16:40:06.591Z,0
2022-12-26T16:40:47.086Z,0
2022-12-26T16:41:27.567Z,0
2022-12-26T16:48:53.030Z,0
2022-12-26T16:49:33.494Z,0
2022-12-26T16:50:13.971Z,0
2022-12-26T16:50:54.494Z,0
2022-12-26T16:51:34.994Z,0
2022-12-26T16:52:15.496Z,0
2022-12-26T16:52:56.018Z,0
2022-12-26T16:53:36.583Z,0
2022-12-26T16:54:16.946Z,0
2022-12-26T16:54:57.459Z,0
2022-12-26T16:55:37.925Z,0
2022-12-26T17:02:23.182Z,0
2022-12-26T17:03:03.628Z,0
2022-12-26T17:03:44.099Z,0
2022-12-26T17:04:24.527Z,0
2022-12-26T17:05:05.016Z,0
2022-12-26T17:05:45.512Z,0
2022-12-26T17:06:25.996Z,0
2022-12-26T17:07:06.497Z,0
2022-12-26T17:07:46.993Z,0
2022-12-26T17:08:27.509Z,0
2022-12-26T17:15:53.006Z,0
2022-12-26T17:16:33.479Z,0
2022-12-26T17:17:13.932Z,0
2022-12-26T17:17:54.409Z,0
2022-12-26T17:18:34.915Z,0
2022-12-26T17:19:15.431Z,0
2022-12-26T17:19:55.959Z,0
2022-12-26T17:20:36.526Z,0
2022-12-26T17:21:16.987Z,0
2022-12-26T17:21:57.480Z,0
2022-12-26T17:22:37.996Z,0
2022-12-26T17:28:43.059Z,0
2022-12-26T17:29:23.540Z,0
2022-12-26T17:30:04.020Z,0
2022-12-26T17:30:44.495Z,0
2022-12-26T17:31:25.039Z,0
2022-12-26T17:32:05.464Z,0
2022-12-26T17:32:46.026Z,0
2022-12-26T17:34:07.010Z,0
2022-12-26T17:34:47.555Z,0
2022-12-26T17:41:49.741Z,0
2022-12-26T17:42:30.650Z,0
2022-12-26T17:43:11.596Z,0
2022-12-26T17:43:53.454Z,0
2022-12-26T17:44:34.565Z,0
2022-12-26T17:47:59.500Z,0
2022-12-26T17:51:13.301Z,0
2022-12-26T17:52:00.006Z,0
2022-12-26T17:52:34.290Z,0
2022-12-26T17:53:14.792Z,0
2022-12-26T17:53:55.346Z,0
2022-12-26T17:54:35.863Z,0
2022-12-26T18:33:49.887Z,0
2022-12-26T18:34:30.286Z,0
2022-12-26T18:35:10.841Z,0
2022-12-26T18:35:51.292Z,0
2022-12-26T18:36:31.801Z,0
2022-12-26T18:37:12.296Z,0
2022-12-26T18:37:52.793Z,0
2022-12-26T18:38:33.249Z,0
2022-12-26T18:39:13.741Z,0
2022-12-26T18:39:54.227Z,0
2022-12-26T18:40:34.702Z,0
2022-12-26T18:47:19.683Z,0
2022-12-26T18:48:00.288Z,0
2022-12-26T18:48:40.706Z,0
2022-12-26T18:49:21.260Z,0
2022-12-26T18:50:01.738Z,0
2022-12-26T18:50:42.305Z,0
2022-12-26T18:51:22.953Z,0
2022-12-26T18:52:04.320Z,0
2022-12-26T18:53:24.560Z,0
2022-12-26T18:58:55.731Z,0
2022-12-26T18:59:30.501Z,0
2022-12-26T19:00:11.013Z,0
2022-12-26T19:00:51.586Z,0
2022-12-26T19:01:32.118Z,0
2022-12-26T19:02:12.534Z,0
2022-12-26T19:03:33.484Z,0
2022-12-26T19:04:14.005Z,0
2022-12-26T19:04:54.477Z,0
2022-12-26T19:10:59.691Z,0
2022-12-26T19:11:40.278Z,0
2022-12-26T19:12:21.137Z,0
2022-12-26T19:13:05.247Z,0
2022-12-26T19:13:42.509Z,0
2022-12-26T19:14:23.136Z,0
2022-12-26T19:15:03.618Z,0
2022-12-26T19:15:44.149Z,0
2022-12-26T19:16:24.682Z,0
2022-12-26T19:23:09.682Z,0
2022-12-26T19:23:50.127Z,0
2022-12-26T19:24:30.615Z,0
2022-12-26T19:25:11.220Z,0
2022-12-26T19:25:51.701Z,0
2022-12-26T19:26:32.344Z,0
2022-12-26T19:27:12.864Z,0
2022-12-26T19:27:53.389Z,0
2022-12-26T19:28:33.851Z,0
2022-12-26T19:29:14.347Z,0
2022-12-26T19:29:54.822Z,0
2022-12-26T19:35:19.660Z,0
2022-12-26T19:36:00.226Z,0
2022-12-26T19:36:40.696Z,0
2022-12-26T19:37:21.224Z,0
2022-12-26T19:38:42.253Z,0
2022-12-26T19:39:22.736Z,0
2022-12-26T19:40:03.270Z,0
2022-12-26T19:40:43.769Z,0
2022-12-26T19:41:24.250Z,0
2022-12-26T19:42:04.796Z,0
2022-12-26T19:48:49.931Z,0
2022-12-26T19:49:33.782Z,0
2022-12-26T19:50:10.916Z,0
2022-12-26T19:50:51.420Z,0
2022-12-26T19:51:31.935Z,0
2022-12-26T19:52:12.472Z,0
2022-12-26T19:52:52.937Z,0
2022-12-26T19:53:33.465Z,0
2022-12-26T19:54:13.973Z,0
2022-12-26T19:54:54.469Z,0
2022-12-26T20:02:20.218Z,0
2022-12-26T20:03:00.559Z,0
2022-12-26T20:03:41.011Z,0
2022-12-26T20:04:21.486Z,0
2022-12-26T20:05:01.994Z,0
2022-12-26T20:05:42.512Z,0
2022-12-26T20:06:22.999Z,0
2022-12-26T20:07:03.511Z,0
2022-12-26T20:07:43.962Z,0
2022-12-26T20:14:29.718Z,0
2022-12-26T20:15:10.207Z,0
2022-12-26T20:15:50.735Z,0
2022-12-26T20:17:04.191Z,0
2022-12-26T20:17:11.772Z,0
2022-12-26T20:17:52.226Z,0
2022-12-26T20:18:32.746Z,0
2022-12-26T20:19:13.218Z,0
2022-12-26T20:19:53.727Z,0
2022-12-26T20:21:14.716Z,0
2022-12-26T20:27:59.576Z,0
2022-12-26T20:28:40.078Z,0
2022-12-26T20:29:20.562Z,0
2022-12-26T20:30:01.084Z,0
2022-12-26T20:30:41.638Z,0
2022-12-26T20:31:22.122Z,0
2022-12-26T20:32:02.554Z,0
2022-12-26T20:32:43.037Z,0
2022-12-26T20:33:23.564Z,0
2022-12-26T20:34:04.040Z,0
2022-12-26T20:34:44.491Z,0
2022-12-26T20:41:29.557Z,0
2022-12-26T20:42:10.067Z,0
2022-12-26T20:42:50.611Z,0
2022-12-26T20:43:31.124Z,0
2022-12-26T20:44:11.594Z,0